createdAt,value
2019-03-06T00:00:28.952Z,7.05
2019-03-06T00:02:57.192Z,7.08
2019-03-06T00:05:25.543Z,7.62
2019-03-06T00:07:54.156Z,7.42
2019-03-06T00:10:29.520Z,7.72
2019-03-06T00:13:00.915Z,7.80
2019-03-06T00:15:29.400Z,8.15
2019-03-06T00:17:57.832Z,8.08
2019-03-06T00:20:26.136Z,8.48
2019-03-06T00:22:54.491Z,8.55
2019-03-06T00:25:22.939Z,8.90
2019-03-06T00:27:51.277Z,8.53
2019-03-06T00:30:24.111Z,9.10
2019-03-06T00:35:49.016Z,9.33
2019-03-06T00:38:17.274Z,9.93
2019-03-06T00:40:47.151Z,9.95
2019-03-06T00:43:15.425Z,9.78
2019-03-06T00:45:43.733Z,9.90
2019-03-06T00:48:11.995Z,9.33
2019-03-06T00:50:40.312Z,10.25
2019-03-06T00:53:08.560Z,10.98
2019-03-06T00:55:36.909Z,10.75
2019-03-06T00:58:05.164Z,10.98
2019-03-06T01:00:33.448Z,10.93
2019-03-06T01:03:01.688Z,13.22
2019-03-06T01:05:29.929Z,12.45
2019-03-06T01:07:58.202Z,12.90
2019-03-06T01:10:26.483Z,13.70
2019-03-06T01:12:54.827Z,13.72
2019-03-06T01:15:23.126Z,13.85
2019-03-06T01:17:51.935Z,15.68
2019-03-06T01:20:25.663Z,15.95
2019-03-06T01:22:53.939Z,15.78
2019-03-06T01:25:22.349Z,16.15
2019-03-06T01:27:50.592Z,16.85
2019-03-06T01:30:25.223Z,16.50
2019-03-06T01:32:55.124Z,16.95
2019-03-06T01:35:25.015Z,17.02
2019-03-06T01:37:55.044Z,18.17
2019-03-06T01:40:25.500Z,17.67
2019-03-06T01:42:55.476Z,18.90
2019-03-06T01:45:23.749Z,18.12
2019-03-06T01:47:52.003Z,19.07
2019-03-06T01:50:20.526Z,19.32
2019-03-06T01:52:48.787Z,18.62
2019-03-06T01:55:17.030Z,19.42
2019-03-06T01:57:45.279Z,19.05
2019-03-06T02:00:27.032Z,18.50
2019-03-06T02:02:55.502Z,18.60
2019-03-06T02:05:23.778Z,18.25
2019-03-06T02:07:52.034Z,18.00
2019-03-06T02:10:20.972Z,18.07
2019-03-06T02:12:49.273Z,17.90
2019-03-06T02:15:18.691Z,19.48
2019-03-06T02:17:46.939Z,19.50
2019-03-06T02:20:22.492Z,20.62
2019-03-06T02:22:50.753Z,19.90
2019-03-06T02:25:19.073Z,19.20
2019-03-06T02:27:47.317Z,19.45
2019-03-06T02:30:19.264Z,19.35
2019-03-06T02:32:50.348Z,18.80
2019-03-06T02:35:18.692Z,20.37
2019-03-06T02:37:46.993Z,19.87
2019-03-06T02:40:15.320Z,20.15
2019-03-06T02:42:43.590Z,19.82
2019-03-06T02:45:14.946Z,20.60
2019-03-06T02:47:43.239Z,20.37
2019-03-06T02:50:20.938Z,20.35
2019-03-06T02:52:49.252Z,21.35
2019-03-06T02:55:18.071Z,20.27
2019-03-06T02:57:48.027Z,20.45
2019-03-06T03:00:20.599Z,20.95
2019-03-06T03:02:50.775Z,20.43
2019-03-06T03:05:20.660Z,21.37
2019-03-06T03:07:48.913Z,21.45
2019-03-06T03:10:21.228Z,21.20
2019-03-06T03:12:49.548Z,20.43
2019-03-06T03:15:17.984Z,20.35
2019-03-06T03:17:46.254Z,19.60
2019-03-06T03:20:14.587Z,20.43
2019-03-06T03:22:42.870Z,18.95
2019-03-06T03:25:11.138Z,19.30
2019-03-06T03:27:39.459Z,17.87
2019-03-06T03:30:10.932Z,17.40
2019-03-06T03:32:39.177Z,17.00
2019-03-06T03:35:07.567Z,16.55
2019-03-06T03:37:35.847Z,17.02
2019-03-06T03:40:07.221Z,16.20
2019-03-06T03:42:35.564Z,15.08
2019-03-06T03:45:05.667Z,15.72
2019-03-06T03:47:33.938Z,15.95
2019-03-06T03:50:02.273Z,14.98
2019-03-06T03:52:30.546Z,14.78
2019-03-06T03:54:59.030Z,15.50
2019-03-06T03:57:27.353Z,14.33
2019-03-06T03:59:55.974Z,14.78
2019-03-06T04:02:24.457Z,15.43
2019-03-06T04:04:52.784Z,15.05
2019-03-06T04:07:21.122Z,15.00
2019-03-06T04:09:49.417Z,15.28
2019-03-06T04:12:17.691Z,14.87
2019-03-06T04:14:45.984Z,14.53
2019-03-06T04:17:14.325Z,15.38
2019-03-06T04:19:42.666Z,15.05
2019-03-06T04:22:11.197Z,15.13
2019-03-06T04:24:39.471Z,14.35
2019-03-06T04:27:07.829Z,14.95
2019-03-06T04:29:36.099Z,14.63
2019-03-06T04:32:04.355Z,14.03
2019-03-06T04:34:32.628Z,13.38
2019-03-06T04:37:00.882Z,13.08
2019-03-06T04:39:29.147Z,14.03
2019-03-06T04:41:57.398Z,12.13
2019-03-06T04:44:25.655Z,12.95
2019-03-06T04:46:53.919Z,12.88
2019-03-06T04:49:22.354Z,11.75
2019-03-06T04:51:50.598Z,12.28
2019-03-06T04:54:18.851Z,11.80
2019-03-06T04:56:47.141Z,11.53
2019-03-06T04:59:15.434Z,11.10
2019-03-06T05:01:44.082Z,11.75
2019-03-06T05:04:12.337Z,11.03
2019-03-06T05:06:40.574Z,11.25
2019-03-06T05:09:08.854Z,11.28
2019-03-06T05:11:37.095Z,9.60
2019-03-06T05:14:05.391Z,10.48
2019-03-06T05:16:35.328Z,9.28
2019-03-06T05:19:03.786Z,9.83
2019-03-06T05:21:32.048Z,9.65
2019-03-06T05:24:00.383Z,9.53
2019-03-06T05:26:28.635Z,9.28
2019-03-06T05:28:56.900Z,8.68
2019-03-06T05:31:25.166Z,8.33
2019-03-06T05:33:53.418Z,9.23
2019-03-06T05:36:25.005Z,9.03
2019-03-06T05:38:56.574Z,8.88
2019-03-06T05:41:24.835Z,8.15
2019-03-06T05:43:53.139Z,8.63
2019-03-06T05:46:21.422Z,8.15
2019-03-06T05:48:49.718Z,7.85
2019-03-06T05:51:18.051Z,8.30
2019-03-06T05:53:46.394Z,7.72
2019-03-06T05:56:14.711Z,7.28
2019-03-06T06:02:17.819Z,6.80
2019-03-06T06:04:54.986Z,5.87
2019-03-06T06:07:34.513Z,6.50
2019-03-06T06:10:10.990Z,6.05
2019-03-06T06:12:49.007Z,6.47
2019-03-06T06:15:17.299Z,6.40
2019-03-06T06:17:45.547Z,6.47
2019-03-06T06:20:16.418Z,6.30
2019-03-06T06:22:46.294Z,5.78
2019-03-06T06:25:14.940Z,5.28
2019-03-06T06:27:43.183Z,5.58
2019-03-06T06:30:12.855Z,5.55
2019-03-06T06:32:41.124Z,5.95
2019-03-06T06:35:11.265Z,5.28
2019-03-06T06:37:39.670Z,5.40
2019-03-06T06:40:10.875Z,5.28
2019-03-06T06:42:39.136Z,5.05
2019-03-06T06:45:10.122Z,4.97
2019-03-06T06:47:41.619Z,5.20
2019-03-06T06:50:11.525Z,4.87
2019-03-06T06:52:43.046Z,4.70
2019-03-06T06:55:14.618Z,4.55
2019-03-06T06:57:46.138Z,4.85
2019-03-06T07:00:18.006Z,4.45
2019-03-06T07:02:51.167Z,3.70
2019-03-06T07:05:21.031Z,4.05
2019-03-06T07:07:50.976Z,3.87
2019-03-06T07:10:21.052Z,3.55
2019-03-06T07:12:50.931Z,3.33
2019-03-06T07:15:20.850Z,3.30
2019-03-06T07:17:50.740Z,3.10
2019-03-06T07:20:20.645Z,3.20
2019-03-06T07:22:50.585Z,3.30
2019-03-06T07:25:20.503Z,3.08
2019-03-06T07:27:50.394Z,3.35
2019-03-06T07:30:20.324Z,3.10
2019-03-06T07:32:50.482Z,3.40
2019-03-06T07:35:23.629Z,3.10
2019-03-06T07:37:53.507Z,3.10
2019-03-06T07:40:25.475Z,2.87
2019-03-06T07:42:55.648Z,3.20
2019-03-06T07:45:28.835Z,2.67
2019-03-06T07:47:58.811Z,2.70
2019-03-06T07:50:28.694Z,2.55
2019-03-06T07:53:02.241Z,2.95
2019-03-06T07:55:32.127Z,2.70
2019-03-06T07:58:03.638Z,3.27
2019-03-06T08:00:31.907Z,3.27
2019-03-06T08:03:03.446Z,3.85
2019-03-06T08:05:31.718Z,3.35
2019-03-06T08:07:59.999Z,3.80
2019-03-06T08:10:29.911Z,3.35
2019-03-06T08:12:59.822Z,3.15
2019-03-06T08:15:29.909Z,3.70
2019-03-06T08:17:59.872Z,3.20
2019-03-06T08:20:29.754Z,3.10
2019-03-06T08:22:59.659Z,2.45
2019-03-06T08:25:29.609Z,2.92
2019-03-06T08:27:57.927Z,2.95
2019-03-06T08:30:27.963Z,3.00
2019-03-06T08:32:56.233Z,3.20
2019-03-06T08:35:24.551Z,2.80
2019-03-06T08:37:54.555Z,3.22
2019-03-06T08:40:24.960Z,3.00
2019-03-06T08:42:52.999Z,2.90
2019-03-06T08:45:22.988Z,2.60
2019-03-06T08:47:52.951Z,2.60
2019-03-06T08:50:27.177Z,2.85
2019-03-06T08:52:58.801Z,2.60
2019-03-06T08:55:28.767Z,2.67
2019-03-06T08:57:58.733Z,2.67
2019-03-06T09:00:30.508Z,2.55
2019-03-06T09:03:02.640Z,3.00
2019-03-06T09:05:32.534Z,2.85
2019-03-06T09:08:02.411Z,2.92
2019-03-06T09:10:32.322Z,2.95
2019-03-06T09:13:02.199Z,3.20
2019-03-06T09:15:32.199Z,2.98
2019-03-06T09:18:09.034Z,3.00
2019-03-06T09:20:39.006Z,3.08
2019-03-06T09:23:07.052Z,2.92
2019-03-06T09:25:37.042Z,3.00
2019-03-06T09:28:10.401Z,2.95
2019-03-06T09:30:40.412Z,3.08
2019-03-06T09:33:12.001Z,3.25
2019-03-06T09:35:41.944Z,2.33
2019-03-06T09:38:11.985Z,2.90
2019-03-06T09:40:46.435Z,2.87
2019-03-06T09:43:58.148Z,2.80
2019-03-06T09:45:57.124Z,2.62
2019-03-06T09:48:27.025Z,3.00
2019-03-06T09:50:57.084Z,2.70
2019-03-06T09:53:27.230Z,2.95
2019-03-06T09:55:58.553Z,2.55
2019-03-06T09:58:28.642Z,2.92
2019-03-06T10:01:04.718Z,2.67
2019-03-06T10:03:31.957Z,2.55
2019-03-06T10:10:15.025Z,2.67
2019-03-06T10:15:29.557Z,3.00
2019-03-06T10:17:59.557Z,3.05
2019-03-06T10:20:28.025Z,3.10
2019-03-06T10:23:14.846Z,3.20
2019-03-06T10:25:45.070Z,2.90
2019-03-06T10:28:16.802Z,2.67
2019-03-06T10:31:01.862Z,3.15
2019-03-06T10:33:25.376Z,3.10
2019-03-06T10:35:53.771Z,2.77
2019-03-06T10:41:27.890Z,2.67
2019-03-06T10:43:56.225Z,2.58
2019-03-06T10:46:24.594Z,3.02
2019-03-06T10:48:52.908Z,2.80
2019-03-06T10:51:26.986Z,3.20
2019-03-06T10:56:49.536Z,2.98
2019-03-06T10:59:17.919Z,3.08
2019-03-06T11:01:46.251Z,2.58
2019-03-06T11:04:16.263Z,3.10
2019-03-06T11:06:44.605Z,2.85
2019-03-06T11:09:12.943Z,2.98
2019-03-06T11:11:41.274Z,3.50
2019-03-06T11:14:09.621Z,3.30
2019-03-06T11:16:40.188Z,3.17
2019-03-06T11:19:07.961Z,2.87
2019-03-06T11:21:36.309Z,3.17
2019-03-06T11:24:04.662Z,3.00
2019-03-06T11:26:33.005Z,3.17
2019-03-06T11:29:01.614Z,3.45
2019-03-06T11:31:29.956Z,3.35
2019-03-06T11:33:58.318Z,3.33
2019-03-06T11:36:26.562Z,3.27
2019-03-06T11:38:54.946Z,3.27
2019-03-06T11:41:23.258Z,3.05
2019-03-06T11:43:51.534Z,3.02
2019-03-06T11:46:19.905Z,3.37
2019-03-06T11:48:48.194Z,3.08
2019-03-06T11:51:16.589Z,3.60
2019-03-06T11:53:44.874Z,3.42
2019-03-06T12:03:18.210Z,3.80
2019-03-06T12:08:17.043Z,3.90
2019-03-06T12:10:45.472Z,3.62
2019-03-06T12:13:15.241Z,4.33
2019-03-06T12:15:45.950Z,3.95
2019-03-06T12:18:27.807Z,3.95
2019-03-06T12:20:56.163Z,3.47
2019-03-06T12:23:24.510Z,3.60
2019-03-06T12:25:52.867Z,4.28
2019-03-06T12:28:21.232Z,3.60
2019-03-06T12:30:49.591Z,3.80
2019-03-06T12:33:20.933Z,3.45
2019-03-06T12:35:49.221Z,3.92
2019-03-06T12:38:19.217Z,3.12
2019-03-06T12:40:47.494Z,4.03
2019-03-06T12:43:15.799Z,4.15
2019-03-06T12:45:47.426Z,3.60
2019-03-06T12:48:17.547Z,4.12
2019-03-06T12:50:54.000Z,3.60
2019-03-06T12:53:15.940Z,3.90
2019-03-06T12:55:44.288Z,4.00
2019-03-06T12:58:12.646Z,3.95
2019-03-06T13:00:40.998Z,3.30
2019-03-06T13:03:09.355Z,3.75
2019-03-06T13:05:37.729Z,3.75
2019-03-06T13:08:06.134Z,4.50
2019-03-06T13:10:34.418Z,3.90
2019-03-06T13:13:02.686Z,4.60
2019-03-06T13:15:31.349Z,4.25
2019-03-06T13:17:59.654Z,4.22
2019-03-06T13:20:27.951Z,4.58
2019-03-06T13:22:56.371Z,3.83
2019-03-06T13:25:25.198Z,4.10
2019-03-06T13:27:55.117Z,4.65
2019-03-06T13:30:25.103Z,4.30
2019-03-06T13:32:55.053Z,4.12
2019-03-06T13:38:44.287Z,4.60
2019-03-06T13:41:12.635Z,4.75
2019-03-06T13:43:40.974Z,4.47
2019-03-06T13:46:09.300Z,4.97
2019-03-06T13:48:37.581Z,5.00
2019-03-06T13:51:06.073Z,4.50
2019-03-06T13:53:34.409Z,5.00
2019-03-06T13:56:02.919Z,4.78
2019-03-06T13:58:31.246Z,4.92
2019-03-06T14:00:59.573Z,4.92
2019-03-06T14:03:27.908Z,4.72
2019-03-06T14:05:56.247Z,4.62
2019-03-06T14:08:24.584Z,4.42
2019-03-06T14:10:52.899Z,4.08
2019-03-06T14:13:21.242Z,4.53
2019-03-06T14:15:54.041Z,4.40
2019-03-06T14:18:19.594Z,4.45
2019-03-06T14:20:47.942Z,4.87
2019-03-06T14:23:16.263Z,4.28
2019-03-06T14:25:47.478Z,3.85
2019-03-06T14:28:15.897Z,3.95
2019-03-06T14:30:44.639Z,4.08
2019-03-06T14:33:13.103Z,4.80
2019-03-06T14:35:41.459Z,4.33
2019-03-06T14:38:09.735Z,4.25
2019-03-06T14:40:38.055Z,4.83
2019-03-06T14:43:08.435Z,4.65
2019-03-06T14:45:36.693Z,4.47
2019-03-06T14:48:05.532Z,4.28
2019-03-06T14:50:33.848Z,4.12
2019-03-06T14:53:02.789Z,4.72
2019-03-06T14:55:31.126Z,4.37
2019-03-06T14:57:59.710Z,4.37
2019-03-06T15:00:30.298Z,4.28
2019-03-06T15:02:58.668Z,4.05
2019-03-06T15:05:27.028Z,4.40
2019-03-06T15:07:55.650Z,4.70
2019-03-06T15:10:24.045Z,4.20
2019-03-06T15:12:52.416Z,4.30
2019-03-06T15:15:20.955Z,4.45
2019-03-06T15:17:49.309Z,4.37
2019-03-06T15:20:37.457Z,4.05
2019-03-06T15:32:46.264Z,4.87
2019-03-06T15:35:38.745Z,5.30
2019-03-06T15:44:07.693Z,4.25
2019-03-06T15:46:36.073Z,4.10
2019-03-06T15:49:04.807Z,3.72
2019-03-06T15:51:34.554Z,3.67
2019-03-06T15:54:26.620Z,3.87
2019-03-06T15:56:54.975Z,3.90
2019-03-06T15:59:23.464Z,3.70
2019-03-06T16:01:51.830Z,3.87
2019-03-06T16:04:20.127Z,3.55
2019-03-06T16:06:53.988Z,3.90
2019-03-06T16:09:18.487Z,4.00
2019-03-06T16:11:46.886Z,3.90
2019-03-06T16:14:15.327Z,4.28
2019-03-06T16:16:43.812Z,4.17
2019-03-06T16:19:24.626Z,4.08
2019-03-06T16:21:52.961Z,4.40
2019-03-06T16:24:48.803Z,4.08
2019-03-06T16:29:50.772Z,4.40
2019-03-06T16:32:19.134Z,4.62
2019-03-06T16:34:47.884Z,4.12
2019-03-06T16:37:16.375Z,4.50
2019-03-06T16:39:44.782Z,5.35
2019-03-06T16:42:13.359Z,4.83
2019-03-06T16:44:41.743Z,4.22
2019-03-06T16:47:11.679Z,4.65
2019-03-06T16:49:41.692Z,4.50
2019-03-06T16:52:10.007Z,4.47
2019-03-06T16:54:38.349Z,4.35
2019-03-06T16:57:06.779Z,4.45
2019-03-06T17:02:10.574Z,4.50
2019-03-06T17:04:38.997Z,4.45
2019-03-06T17:07:07.349Z,4.37
2019-03-06T17:09:35.770Z,3.87
2019-03-06T17:12:04.115Z,4.20
2019-03-06T17:14:32.496Z,4.47
2019-03-06T17:17:10.676Z,3.87
2019-03-06T17:23:47.363Z,4.28
2019-03-06T17:26:31.838Z,4.60
2019-03-06T17:29:09.486Z,4.20
2019-03-06T17:32:00.575Z,4.17
2019-03-06T17:34:28.985Z,4.58
2019-03-06T17:36:57.305Z,4.08
2019-03-06T17:39:25.704Z,4.80
2019-03-06T17:41:54.064Z,4.35
2019-03-06T17:44:22.580Z,4.33
2019-03-06T17:46:51.114Z,4.30
2019-03-06T17:49:19.466Z,4.75
2019-03-06T17:51:47.795Z,4.00
2019-03-06T17:54:16.107Z,4.58
2019-03-06T17:56:44.426Z,4.60
2019-03-06T17:59:12.682Z,4.15
2019-03-06T18:01:41.117Z,4.45
2019-03-06T18:04:11.076Z,5.40
2019-03-06T18:06:39.732Z,5.42
2019-03-06T18:09:08.080Z,6.72
2019-03-06T18:11:36.412Z,7.10
2019-03-06T18:14:04.802Z,6.30
2019-03-06T18:16:33.281Z,5.92
2019-03-06T18:19:01.638Z,5.50
2019-03-06T18:21:29.925Z,5.50
2019-03-06T18:24:00.742Z,4.92
2019-03-06T18:29:35.900Z,5.20
2019-03-06T18:32:04.169Z,5.20
2019-03-06T18:34:33.367Z,5.35
2019-03-06T18:37:01.755Z,5.25
2019-03-06T18:39:30.087Z,5.60
2019-03-06T18:41:58.463Z,5.40
2019-03-06T18:45:12.432Z,5.95
2019-03-06T18:47:40.941Z,5.92
2019-03-06T18:56:06.023Z,6.70
2019-03-06T18:58:34.344Z,7.05
2019-03-06T19:01:02.943Z,6.30
2019-03-06T19:03:31.253Z,7.28
2019-03-06T19:05:59.824Z,6.60
2019-03-06T19:08:31.393Z,7.00
2019-03-06T19:10:58.214Z,6.58
2019-03-06T19:13:26.575Z,8.18
2019-03-06T19:16:24.833Z,11.90
2019-03-06T19:19:04.584Z,12.33
2019-03-06T19:21:32.931Z,10.90
2019-03-06T19:27:07.651Z,11.10
2019-03-06T19:29:36.040Z,8.10
2019-03-06T19:32:04.398Z,7.30
2019-03-06T19:34:32.719Z,6.90
2019-03-06T19:37:01.189Z,6.97
2019-03-06T19:39:52.800Z,6.87
2019-03-06T19:42:23.509Z,7.65
2019-03-06T19:45:07.412Z,7.30
2019-03-06T19:47:37.325Z,6.70
2019-03-06T19:50:11.131Z,7.12
2019-03-06T19:52:40.153Z,6.62
2019-03-06T19:55:11.224Z,6.90
2019-03-06T19:57:42.885Z,6.15
2019-03-06T20:00:14.144Z,5.80
2019-03-06T20:02:42.959Z,5.80
2019-03-06T20:05:11.283Z,6.22
2019-03-06T20:07:39.662Z,5.92
2019-03-06T20:10:12.698Z,6.30
2019-03-06T20:12:44.224Z,5.95
2019-03-06T20:15:16.259Z,6.58
2019-03-06T20:17:44.725Z,5.92
2019-03-06T20:20:15.526Z,5.95
2019-03-06T20:22:43.843Z,5.72
2019-03-06T20:25:33.381Z,6.80
2019-03-06T20:28:10.476Z,6.47
2019-03-06T20:30:43.054Z,6.58
2019-03-06T20:33:20.748Z,6.03
2019-03-06T20:39:20.354Z,6.12
2019-03-06T20:41:48.670Z,6.10
2019-03-06T20:44:17.841Z,6.05
2019-03-06T20:46:46.380Z,6.22
2019-03-06T20:49:14.667Z,6.12
2019-03-06T20:51:43.216Z,5.95
2019-03-06T20:54:11.564Z,6.03
2019-03-06T20:56:39.883Z,6.35
2019-03-06T20:59:08.141Z,6.20
2019-03-06T21:01:36.598Z,6.12
2019-03-06T21:04:04.908Z,6.70
2019-03-06T21:06:36.176Z,6.58
2019-03-06T21:09:03.224Z,6.45
2019-03-06T21:11:31.460Z,6.45
2019-03-06T21:14:00.018Z,7.28
2019-03-06T21:16:28.338Z,7.53
2019-03-06T21:18:56.686Z,7.58
2019-03-06T21:21:25.026Z,6.80
2019-03-06T21:23:53.354Z,8.80
2019-03-06T21:26:21.583Z,7.00
2019-03-06T21:28:49.930Z,8.13
2019-03-06T21:31:18.462Z,6.80
2019-03-06T21:33:46.779Z,9.63
2019-03-06T21:36:15.070Z,7.97
2019-03-06T21:38:43.421Z,9.85
2019-03-06T21:41:11.760Z,7.35
2019-03-06T21:43:40.099Z,6.67
2019-03-06T21:46:08.432Z,6.40
2019-03-06T21:48:36.759Z,6.17
2019-03-06T21:51:05.497Z,6.30
2019-03-06T21:53:33.977Z,6.15
2019-03-06T21:56:02.319Z,6.35
2019-03-06T21:58:30.663Z,6.50
2019-03-06T22:00:58.939Z,6.80
2019-03-06T22:03:27.276Z,6.83
2019-03-06T22:05:55.598Z,6.62
2019-03-06T22:08:23.870Z,6.72
2019-03-06T22:10:52.205Z,6.90
2019-03-06T22:13:20.556Z,7.58
2019-03-06T22:15:48.903Z,6.60
2019-03-06T22:18:17.207Z,7.97
2019-03-06T22:20:45.642Z,7.30
2019-03-06T22:23:13.939Z,6.90
2019-03-06T22:25:42.313Z,7.03
2019-03-06T22:28:10.587Z,7.10
2019-03-06T22:30:38.860Z,7.83
2019-03-06T22:33:07.178Z,7.58
2019-03-06T22:35:35.421Z,7.47
2019-03-06T22:38:03.790Z,8.08
2019-03-06T22:40:32.130Z,8.00
2019-03-06T22:43:00.447Z,9.03
2019-03-06T22:45:28.776Z,9.15
2019-03-06T22:47:57.043Z,8.75
2019-03-06T22:50:26.634Z,8.70
2019-03-06T22:52:54.954Z,9.08
2019-03-06T22:55:23.220Z,8.98
2019-03-06T22:57:51.524Z,8.48
2019-03-06T23:00:29.592Z,9.00
2019-03-06T23:02:58.007Z,9.05
2019-03-06T23:05:28.100Z,9.80
2019-03-06T23:07:56.457Z,10.18
2019-03-06T23:10:27.899Z,9.55
2019-03-06T23:12:56.172Z,10.43
2019-03-06T23:15:24.533Z,10.15
2019-03-06T23:17:52.857Z,9.70
2019-03-06T23:20:21.798Z,9.70
2019-03-06T23:22:50.145Z,10.32
2019-03-06T23:25:18.482Z,10.03
2019-03-06T23:27:46.815Z,9.20
2019-03-06T23:30:18.839Z,10.20
2019-03-06T23:32:48.820Z,10.13
2019-03-06T23:35:17.150Z,9.80
2019-03-06T23:37:45.501Z,10.98
2019-03-06T23:40:13.886Z,10.10
2019-03-06T23:42:42.173Z,10.75
2019-03-06T23:45:11.865Z,11.30
2019-03-06T23:47:40.387Z,11.95
2019-03-06T23:50:10.847Z,11.30
2019-03-06T23:52:40.767Z,11.50
2019-03-06T23:55:09.039Z,11.40
2019-03-06T23:57:37.411Z,12.20
